createdAt,value
2023-01-08T00:02:23.076Z,5.20
2023-01-08T00:07:24.725Z,5.78
2023-01-08T00:12:26.373Z,5.13
2023-01-08T00:17:28.043Z,5.10
2023-01-08T00:22:29.775Z,5.10
2023-01-08T00:27:31.481Z,5.80
2023-01-08T00:32:33.287Z,5.45
2023-01-08T00:37:35.003Z,4.32
2023-01-08T00:42:36.679Z,4.97
2023-01-08T00:47:38.339Z,5.22
2023-01-08T00:52:40.068Z,5.72
2023-01-08T00:57:41.733Z,5.10
2023-01-08T01:02:43.857Z,5.00
2023-01-08T01:07:46.104Z,4.65
2023-01-08T01:12:47.734Z,4.40
2023-01-08T01:17:49.479Z,5.10
2023-01-08T01:22:51.360Z,5.00
2023-01-08T01:27:53.006Z,4.32
2023-01-08T01:32:55.336Z,4.82
2023-01-08T01:37:56.988Z,4.50
2023-01-08T01:42:58.624Z,4.18
2023-01-08T01:48:02.543Z,4.47
2023-01-08T01:53:17.622Z,4.80
2023-01-08T01:58:30.049Z,4.53
2023-01-08T02:03:36.792Z,4.35
2023-01-08T02:09:07.449Z,4.63
2023-01-08T02:14:17.565Z,4.63
2023-01-08T02:19:41.017Z,4.25
2023-01-08T02:25:16.552Z,4.45
2023-01-08T02:30:19.128Z,4.30
2023-01-08T02:35:20.916Z,3.65
2023-01-08T02:40:43.505Z,4.68
2023-01-08T02:45:52.803Z,4.95
2023-01-08T02:51:11.978Z,4.05
2023-01-08T02:56:17.141Z,4.03
2023-01-08T03:01:22.419Z,3.88
2023-01-08T03:06:26.443Z,4.50
2023-01-08T03:11:36.185Z,4.35
2023-01-08T03:16:37.831Z,4.43
2023-01-08T03:21:42.544Z,4.05
2023-01-08T03:26:47.086Z,3.90
2023-01-08T03:31:50.638Z,3.95
2023-01-08T03:36:58.126Z,4.43
2023-01-08T03:42:04.923Z,4.68
2023-01-08T03:47:10.484Z,4.05
2023-01-08T03:52:23.234Z,4.50
2023-01-08T03:57:25.038Z,4.40
2023-01-08T04:02:26.793Z,4.60
2023-01-08T04:07:29.055Z,3.60
2023-01-08T04:12:30.758Z,4.13
2023-01-08T04:17:32.365Z,4.22
2023-01-08T04:22:34.141Z,4.32
2023-01-08T04:27:35.783Z,4.10
2023-01-08T04:32:37.424Z,3.95
2023-01-08T04:37:39.061Z,3.97
2023-01-08T04:42:40.748Z,4.25
2023-01-08T04:47:42.397Z,4.32
2023-01-08T04:52:44.046Z,4.55
2023-01-08T04:57:46.192Z,4.00
2023-01-08T05:02:48.082Z,4.90
2023-01-08T05:07:49.791Z,3.97
2023-01-08T05:12:51.620Z,4.13
2023-01-08T05:18:00.706Z,4.63
2023-01-08T05:23:02.637Z,4.43
2023-01-08T05:28:04.448Z,4.13
2023-01-08T05:33:06.118Z,4.50
2023-01-08T05:38:08.243Z,3.85
2023-01-08T05:43:09.916Z,4.60
2023-01-08T05:48:11.567Z,4.68
2023-01-08T05:53:13.197Z,5.38
2023-01-08T05:58:19.093Z,5.20
2023-01-08T06:03:22.430Z,5.35
2023-01-08T06:08:24.039Z,5.15
2023-01-08T06:13:25.702Z,5.13
2023-01-08T06:18:28.755Z,5.32
2023-01-08T06:23:30.496Z,6.40
2023-01-08T06:28:32.616Z,5.32
2023-01-08T06:33:34.434Z,4.95
2023-01-08T06:38:36.952Z,5.20
2023-01-08T06:43:39.102Z,4.85
2023-01-08T06:48:40.762Z,5.00
2023-01-08T06:53:42.386Z,5.15
2023-01-08T06:58:44.083Z,5.53
2023-01-08T07:03:46.322Z,5.07
2023-01-08T07:08:48.738Z,6.10
2023-01-08T07:13:50.911Z,5.10
2023-01-08T07:18:52.577Z,5.50
2023-01-08T07:23:54.232Z,4.97
2023-01-08T07:28:56.006Z,5.03
2023-01-08T07:33:57.630Z,5.57
2023-01-08T07:38:59.378Z,4.20
2023-01-08T07:44:01.065Z,4.25
2023-01-08T07:49:02.778Z,4.85
2023-01-08T07:54:04.716Z,4.65
2023-01-08T07:59:06.449Z,4.18
2023-01-08T08:04:08.146Z,4.88
2023-01-08T08:09:09.910Z,4.22
2023-01-08T08:14:11.621Z,5.40
2023-01-08T08:19:13.635Z,5.25
2023-01-08T08:24:15.289Z,5.70
2023-01-08T08:29:17.233Z,4.88
2023-01-08T08:34:21.116Z,5.50
2023-01-08T08:39:22.914Z,5.38
2023-01-08T08:44:24.619Z,5.18
2023-01-08T08:49:26.458Z,5.22
2023-01-08T08:54:28.142Z,5.15
2023-01-08T08:59:29.854Z,5.57
2023-01-08T09:04:34.804Z,5.93
2023-01-08T09:09:36.511Z,5.25
2023-01-08T09:14:38.188Z,5.50
2023-01-08T09:19:39.940Z,5.43
2023-01-08T09:24:41.634Z,5.30
2023-01-08T09:29:43.397Z,5.95
2023-01-08T09:34:45.138Z,6.63
2023-01-08T09:39:51.153Z,6.00
2023-01-08T09:44:57.755Z,5.78
2023-01-08T09:50:03.169Z,6.30
2023-01-08T09:55:13.939Z,5.78
2023-01-08T10:00:19.588Z,6.53
2023-01-08T10:05:21.473Z,6.40
2023-01-08T10:10:29.887Z,6.38
2023-01-08T10:15:31.677Z,6.10
2023-01-08T10:20:34.231Z,6.05
2023-01-08T10:25:49.216Z,6.93
2023-01-08T10:30:52.784Z,6.43
2023-01-08T10:36:08.055Z,7.43
2023-01-08T10:41:12.688Z,7.65
2023-01-08T10:46:23.356Z,7.20
2023-01-08T10:51:28.450Z,8.15
2023-01-08T10:56:40.626Z,7.32
2023-01-08T11:01:47.986Z,8.20
2023-01-08T11:06:50.249Z,7.30
2023-01-08T11:11:52.216Z,6.72
2023-01-08T11:16:55.287Z,7.60
2023-01-08T11:22:24.697Z,6.18
2023-01-08T11:27:37.101Z,6.20
2023-01-08T11:32:49.346Z,5.82
2023-01-08T11:37:52.347Z,5.45
2023-01-08T11:43:18.876Z,5.53
2023-01-08T11:54:00.253Z,9.05
2023-01-08T11:59:33.741Z,7.88
2023-01-08T12:04:38.258Z,7.05
2023-01-08T12:09:46.373Z,7.55
2023-01-08T12:15:33.255Z,7.85
2023-01-08T12:20:34.840Z,7.45
2023-01-08T12:26:12.645Z,7.43
2023-01-08T12:31:38.545Z,8.13
2023-01-08T12:36:46.076Z,3.50
2023-01-08T12:41:49.888Z,4.35
2023-01-08T12:46:54.327Z,1.88
2023-01-08T12:52:27.938Z,1.70
2023-01-08T12:57:39.031Z,1.30
2023-01-08T13:02:52.048Z,1.10
2023-01-08T13:08:27.799Z,0.98
2023-01-08T13:13:35.562Z,1.10
2023-01-08T13:18:38.432Z,1.20
2023-01-08T13:23:40.180Z,1.50
2023-01-08T13:28:44.911Z,1.00
2023-01-08T13:33:48.860Z,0.80
2023-01-08T13:39:10.591Z,1.00
2023-01-08T13:44:29.044Z,0.80
2023-01-08T13:49:53.429Z,0.88
2023-01-08T13:54:55.336Z,0.80
2023-01-08T13:59:59.129Z,0.70
2023-01-08T14:05:03.400Z,0.90
2023-01-08T14:10:13.439Z,0.90
2023-01-08T14:15:23.491Z,1.00
2023-01-08T14:20:38.549Z,0.77
2023-01-08T14:25:41.724Z,1.45
2023-01-08T14:30:54.753Z,1.10
2023-01-08T14:35:57.335Z,1.00
2023-01-08T14:41:09.735Z,1.00
2023-01-08T14:46:26.252Z,0.93
2023-01-08T14:51:30.838Z,1.00
2023-01-08T14:56:35.328Z,0.70
2023-01-08T15:01:37.617Z,1.00
2023-01-08T15:06:39.558Z,0.82
2023-01-08T15:11:53.360Z,1.00
2023-01-08T15:17:00.253Z,0.90
2023-01-08T15:22:02.552Z,1.10
2023-01-08T15:27:10.387Z,0.82
2023-01-08T15:32:15.738Z,0.70
2023-01-08T15:37:17.402Z,0.90
2023-01-08T15:42:48.550Z,0.60
2023-01-08T15:47:50.262Z,0.63
2023-01-08T15:52:52.126Z,3.03
2023-01-08T15:57:56.063Z,2.20
2023-01-08T16:03:00.007Z,0.82
2023-01-08T16:08:01.936Z,1.00
2023-01-08T16:13:04.984Z,0.98
2023-01-08T16:18:06.945Z,1.13
2023-01-08T16:23:08.623Z,0.90
2023-01-08T16:28:10.509Z,1.00
2023-01-08T16:33:12.340Z,1.00
2023-01-08T16:38:14.616Z,0.80
2023-01-08T16:43:16.976Z,1.00
2023-01-08T16:48:19.016Z,0.85
2023-01-08T16:53:22.122Z,0.95
2023-01-08T16:58:24.116Z,0.70
2023-01-08T17:03:25.904Z,0.88
2023-01-08T17:08:28.682Z,0.80
2023-01-08T17:13:30.448Z,0.80
2023-01-08T17:18:33.082Z,0.65
2023-01-08T17:23:36.143Z,0.85
2023-01-08T17:28:40.112Z,0.82
2023-01-08T17:33:42.155Z,0.50
2023-01-08T17:38:44.269Z,0.70
2023-01-08T17:43:46.473Z,0.70
2023-01-08T17:48:48.611Z,0.70
2023-01-08T17:53:50.634Z,0.65
2023-01-08T17:58:53.913Z,0.60
2023-01-08T18:03:56.223Z,0.60
2023-01-08T18:08:58.300Z,0.73
2023-01-08T18:14:02.623Z,0.75
2023-01-08T18:19:04.660Z,0.70
2023-01-08T18:24:07.509Z,0.65
2023-01-08T18:29:09.947Z,0.52
2023-01-08T18:34:15.220Z,0.50
2023-01-08T18:39:17.412Z,0.45
2023-01-08T18:44:21.152Z,0.45
2023-01-08T18:49:23.999Z,0.57
2023-01-08T18:54:26.340Z,0.50
2023-01-08T18:59:29.734Z,0.68
2023-01-08T19:04:31.769Z,0.80
2023-01-08T19:09:33.640Z,0.65
2023-01-08T19:14:37.360Z,0.60
2023-01-08T19:19:39.815Z,0.60
2023-01-08T19:24:43.428Z,0.70
2023-01-08T19:29:45.644Z,0.80
2023-01-08T19:34:48.261Z,0.90
2023-01-08T19:39:51.625Z,1.40
2023-01-08T19:44:53.583Z,1.15
2023-01-08T19:49:55.581Z,3.03
2023-01-08T19:54:58.717Z,2.80
2023-01-08T20:00:00.666Z,2.92
2023-01-08T20:05:02.927Z,3.22
2023-01-08T20:10:05.911Z,1.88
2023-01-08T20:15:08.625Z,0.93
2023-01-08T20:20:12.075Z,1.00
2023-01-08T20:25:14.545Z,0.70
2023-01-08T20:30:17.128Z,0.70
2023-01-08T20:35:19.616Z,0.55
2023-01-08T20:40:21.858Z,0.60
2023-01-08T20:45:24.008Z,0.73
2023-01-08T20:50:25.878Z,0.70
2023-01-08T20:55:27.995Z,0.80
2023-01-08T21:00:30.110Z,0.60
2023-01-08T21:05:34.030Z,0.88
2023-01-08T21:10:36.231Z,0.90
2023-01-08T21:15:38.162Z,0.60
2023-01-08T21:20:39.948Z,0.68
2023-01-08T21:25:41.722Z,0.47
2023-01-08T21:30:43.460Z,0.32
2023-01-08T21:35:45.438Z,0.30
2023-01-08T21:40:47.119Z,0.55
2023-01-08T21:46:01.455Z,0.30
2023-01-08T21:51:03.219Z,0.22
2023-01-08T21:56:05.130Z,0.40
2023-01-08T22:01:10.123Z,0.45
2023-01-08T22:06:11.927Z,0.20
2023-01-08T22:11:13.625Z,0.30
2023-01-08T22:16:15.293Z,0.40
2023-01-08T22:21:17.144Z,0.25
2023-01-08T22:26:20.289Z,0.55
2023-01-08T22:31:22.082Z,1.00
2023-01-08T22:36:23.943Z,0.90
2023-01-08T22:41:25.771Z,1.42
2023-01-08T22:46:27.544Z,1.23
2023-01-08T22:51:29.296Z,1.48
2023-01-08T22:56:30.976Z,1.40
2023-01-08T23:01:32.643Z,1.35
2023-01-08T23:06:34.702Z,1.13
2023-01-08T23:11:36.456Z,1.58
2023-01-08T23:16:38.203Z,1.80
2023-01-08T23:21:40.386Z,1.95
2023-01-08T23:26:42.735Z,1.27
2023-01-08T23:31:45.020Z,1.33
2023-01-08T23:36:46.713Z,1.52
2023-01-08T23:41:48.387Z,1.30
2023-01-08T23:46:50.549Z,2.08
2023-01-08T23:51:52.306Z,2.35
2023-01-08T23:56:54.534Z,2.00
